METAR EVRA 262050Z 33005KT CAVOK M00/M05 Q1016 R36/190095 NOSIG =

ATC Feedback

Controllers Online

PositionControllerOnline
No controllers currently online

Booked ATC Today

* Times are UTC

The time is now

UTC: 

Local: 

Latvia vACC on twitter